sensor_id;sensor_type;location;lat;lon;timestamp;pressure;altitude;pressure_sealevel;temperature;humidity
18504;BME280;9381;54.244;10.074;2023-02-22T00:00:59;101135.31;;;7.92;100.00
18504;BME280;9381;54.244;10.074;2023-02-22T00:06:06;101131.06;;;7.83;100.00
18504;BME280;9381;54.244;10.074;2023-02-22T00:11:07;101128.28;;;7.91;100.00
18504;BME280;9381;54.244;10.074;2023-02-22T00:16:08;101129.94;;;7.92;100.00
18504;BME280;9381;54.244;10.074;2023-02-22T00:21:13;101134.88;;;7.89;100.00
18504;BME280;9381;54.244;10.074;2023-02-22T00:26:16;101131.78;;;7.92;100.00
18504;BME280;9381;54.244;10.074;2023-02-22T00:31:20;101128.59;;;8.03;100.00
18504;BME280;9381;54.244;10.074;2023-02-22T00:36:20;101126.22;;;8.14;100.00
18504;BME280;9381;54.244;10.074;2023-02-22T00:41:21;101127.09;;;8.15;100.00
18504;BME280;9381;54.244;10.074;2023-02-22T00:46:21;101121.16;;;8.19;100.00
18504;BME280;9381;54.244;10.074;2023-02-22T00:51:24;101119.38;;;8.26;100.00
18504;BME280;9381;54.244;10.074;2023-02-22T00:56:25;101127.44;;;8.26;100.00
18504;BME280;9381;54.244;10.074;2023-02-22T01:01:26;101119.22;;;8.34;100.00
18504;BME280;9381;54.244;10.074;2023-02-22T01:06:26;101112.16;;;8.33;100.00
18504;BME280;9381;54.244;10.074;2023-02-22T01:11:28;101104.19;;;8.25;100.00
18504;BME280;9381;54.244;10.074;2023-02-22T01:16:29;101098.81;;;8.25;100.00
18504;BME280;9381;54.244;10.074;2023-02-22T01:21:30;101104.97;;;8.19;100.00
18504;BME280;9381;54.244;10.074;2023-02-22T01:26:30;101106.09;;;8.10;100.00
18504;BME280;9381;54.244;10.074;2023-02-22T01:31:31;101106.06;;;7.89;100.00
18504;BME280;9381;54.244;10.074;2023-02-22T01:36:31;101106.66;;;7.70;100.00
18504;BME280;9381;54.244;10.074;2023-02-22T01:41:31;101106.56;;;7.78;100.00
18504;BME280;9381;54.244;10.074;2023-02-22T01:46:32;101097.94;;;7.68;100.00
18504;BME280;9381;54.244;10.074;2023-02-22T01:51:36;101102.63;;;7.60;100.00
18504;BME280;9381;54.244;10.074;2023-02-22T01:56:44;101099.28;;;7.58;100.00
18504;BME280;9381;54.244;10.074;2023-02-22T02:01:45;101095.81;;;7.64;100.00
18504;BME280;9381;54.244;10.074;2023-02-22T02:06:46;101094.75;;;7.79;100.00
18504;BME280;9381;54.244;10.074;2023-02-22T02:11:48;101095.03;;;7.84;100.00
18504;BME280;9381;54.244;10.074;2023-02-22T02:16:50;101094.28;;;7.90;100.00
18504;BME280;9381;54.244;10.074;2023-02-22T02:27:17;101080.81;;;8.11;100.00
18504;BME280;9381;54.244;10.074;2023-02-22T02:32:44;101076.47;;;8.10;100.00
18504;BME280;9381;54.244;10.074;2023-02-22T02:38:00;101078.78;;;8.13;100.00
18504;BME280;9381;54.244;10.074;2023-02-22T02:48:26;101079.13;;;8.25;100.00
18504;BME280;9381;54.244;10.074;2023-02-22T02:53:41;101085.09;;;8.20;100.00
18504;BME280;9381;54.244;10.074;2023-02-22T02:58:48;101076.66;;;8.30;100.00
18504;BME280;9381;54.244;10.074;2023-02-22T03:09:10;101067.38;;;8.32;100.00
18504;BME280;9381;54.244;10.074;2023-02-22T03:14:23;101066.59;;;8.38;100.00
18504;BME280;9381;54.244;10.074;2023-02-22T03:19:42;101058.31;;;8.40;100.00
18504;BME280;9381;54.244;10.074;2023-02-22T03:24:48;101052.34;;;8.44;100.00
18504;BME280;9381;54.244;10.074;2023-02-22T03:29:56;101047.97;;;8.43;100.00
18504;BME280;9381;54.244;10.074;2023-02-22T03:35:07;101046.81;;;8.52;100.00
18504;BME280;9381;54.244;10.074;2023-02-22T03:40:12;101045.97;;;8.52;100.00
18504;BME280;9381;54.244;10.074;2023-02-22T03:45:16;101044.91;;;8.46;100.00
18504;BME280;9381;54.244;10.074;2023-02-22T03:50:20;101042.69;;;8.56;100.00
18504;BME280;9381;54.244;10.074;2023-02-22T03:55:24;101034.81;;;8.55;100.00
18504;BME280;9381;54.244;10.074;2023-02-22T04:00:28;101035.88;;;8.60;100.00
18504;BME280;9381;54.244;10.074;2023-02-22T04:05:30;101029.44;;;8.61;100.00
18504;BME280;9381;54.244;10.074;2023-02-22T04:10:31;101036.50;;;8.62;100.00
18504;BME280;9381;54.244;10.074;2023-02-22T04:15:32;101038.97;;;8.57;100.00
18504;BME280;9381;54.244;10.074;2023-02-22T04:20:32;101035.25;;;8.58;100.00
18504;BME280;9381;54.244;10.074;2023-02-22T04:25:33;101038.66;;;8.46;100.00
18504;BME280;9381;54.244;10.074;2023-02-22T04:30:34;101041.72;;;8.36;100.00
18504;BME280;9381;54.244;10.074;2023-02-22T04:35:34;101039.88;;;8.43;100.00
18504;BME280;9381;54.244;10.074;2023-02-22T04:40:34;101038.19;;;8.36;100.00
18504;BME280;9381;54.244;10.074;2023-02-22T04:45:35;101043.75;;;8.34;100.00
18504;BME280;9381;54.244;10.074;2023-02-22T04:50:35;101044.81;;;8.40;100.00
18504;BME280;9381;54.244;10.074;2023-02-22T04:55:35;101048.06;;;8.50;100.00
18504;BME280;9381;54.244;10.074;2023-02-22T05:00:36;101042.88;;;8.27;100.00
18504;BME280;9381;54.244;10.074;2023-02-22T05:05:36;101047.03;;;8.30;100.00
18504;BME280;9381;54.244;10.074;2023-02-22T05:10:36;101042.88;;;8.27;100.00
18504;BME280;9381;54.244;10.074;2023-02-22T05:15:36;101046.34;;;8.21;100.00
18504;BME280;9381;54.244;10.074;2023-02-22T05:20:37;101033.56;;;7.88;100.00
18504;BME280;9381;54.244;10.074;2023-02-22T05:25:37;101033.34;;;7.89;100.00
18504;BME280;9381;54.244;10.074;2023-02-22T05:30:39;101027.72;;;7.84;100.00
18504;BME280;9381;54.244;10.074;2023-02-22T05:35:40;101034.00;;;7.91;100.00
18504;BME280;9381;54.244;10.074;2023-02-22T05:40:41;101032.06;;;7.85;100.00
18504;BME280;9381;54.244;10.074;2023-02-22T05:45:42;101039.97;;;7.87;100.00
18504;BME280;9381;54.244;10.074;2023-02-22T05:50:42;101033.75;;;7.86;100.00
18504;BME280;9381;54.244;10.074;2023-02-22T05:55:43;101037.97;;;7.95;100.00
18504;BME280;9381;54.244;10.074;2023-02-22T06:00:43;101039.28;;;7.99;100.00
18504;BME280;9381;54.244;10.074;2023-02-22T06:05:43;101036.81;;;8.04;100.00
18504;BME280;9381;54.244;10.074;2023-02-22T06:10:44;101037.84;;;8.03;100.00
18504;BME280;9381;54.244;10.074;2023-02-22T06:15:44;101041.44;;;8.10;100.00
18504;BME280;9381;54.244;10.074;2023-02-22T06:20:44;101043.84;;;8.20;100.00
18504;BME280;9381;54.244;10.074;2023-02-22T06:25:44;101043.41;;;8.02;100.00
18504;BME280;9381;54.244;10.074;2023-02-22T06:30:45;101034.75;;;8.06;100.00
18504;BME280;9381;54.244;10.074;2023-02-22T06:35:45;101032.72;;;8.08;100.00
18504;BME280;9381;54.244;10.074;2023-02-22T06:40:46;101031.13;;;8.14;100.00
18504;BME280;9381;54.244;10.074;2023-02-22T06:45:46;101037.41;;;8.21;100.00
18504;BME280;9381;54.244;10.074;2023-02-22T06:50:47;101035.56;;;8.21;100.00
18504;BME280;9381;54.244;10.074;2023-02-22T06:55:48;101031.38;;;8.19;100.00
18504;BME280;9381;54.244;10.074;2023-02-22T07:00:48;101030.47;;;8.12;100.00
18504;BME280;9381;54.244;10.074;2023-02-22T07:05:49;101041.44;;;8.10;100.00
18504;BME280;9381;54.244;10.074;2023-02-22T07:10:49;101041.22;;;8.26;100.00
18504;BME280;9381;54.244;10.074;2023-02-22T07:15:49;101043.69;;;8.28;100.00
18504;BME280;9381;54.244;10.074;2023-02-22T07:20:49;101047.81;;;8.24;100.00
18504;BME280;9381;54.244;10.074;2023-02-22T07:25:50;101048.84;;;8.23;100.00
18504;BME280;9381;54.244;10.074;2023-02-22T07:30:50;101051.59;;;8.29;100.00
18504;BME280;9381;54.244;10.074;2023-02-22T07:35:50;101049.53;;;8.31;100.00
18504;BME280;9381;54.244;10.074;2023-02-22T07:40:51;101048.38;;;8.40;100.00
18504;BME280;9381;54.244;10.074;2023-02-22T07:45:53;101053.94;;;8.39;100.00
18504;BME280;9381;54.244;10.074;2023-02-22T07:50:54;101042.88;;;8.27;100.00
18504;BME280;9381;54.244;10.074;2023-02-22T07:55:56;101050.66;;;8.43;100.00
18504;BME280;9381;54.244;10.074;2023-02-22T08:00:57;101049.63;;;8.44;100.00
18504;BME280;9381;54.244;10.074;2023-02-22T08:05:57;101051.97;;;8.47;100.00
18504;BME280;9381;54.244;10.074;2023-02-22T08:10:59;101050.94;;;8.48;100.00
18504;BME280;9381;54.244;10.074;2023-02-22T08:15:59;101045.53;;;8.48;100.00
18504;BME280;9381;54.244;10.074;2023-02-22T08:21:00;101037.75;;;8.60;100.00
18504;BME280;9381;54.244;10.074;2023-02-22T08:26:08;101039.88;;;8.64;100.00
18504;BME280;9381;54.244;10.074;2023-02-22T08:31:09;101033.03;;;8.68;100.00
18504;BME280;9381;54.244;10.074;2023-02-22T08:36:09;101037.22;;;8.70;100.00
18504;BME280;9381;54.244;10.074;2023-02-22T08:41:10;101020.66;;;8.80;100.00
18504;BME280;9381;54.244;10.074;2023-02-22T08:46:10;101015.81;;;8.69;100.00
18504;BME280;9381;54.244;10.074;2023-02-22T08:51:11;101015.34;;;8.86;100.00
18504;BME280;9381;54.244;10.074;2023-02-22T08:56:11;101009.78;;;8.94;100.00
18504;BME280;9381;54.244;10.074;2023-02-22T09:01:11;101002.69;;;8.93;100.00
18504;BME280;9381;54.244;10.074;2023-02-22T09:06:13;101000.25;;;9.05;100.00
18504;BME280;9381;54.244;10.074;2023-02-22T09:11:13;100987.06;;;9.23;100.00
18504;BME280;9381;54.244;10.074;2023-02-22T09:16:14;100990.19;;;9.20;100.00
18504;BME280;9381;54.244;10.074;2023-02-22T09:21:14;100993.75;;;9.33;100.00
18504;BME280;9381;54.244;10.074;2023-02-22T09:26:14;100991.69;;;9.42;100.00
18504;BME280;9381;54.244;10.074;2023-02-22T09:31:15;100992.59;;;9.62;100.00
18504;BME280;9381;54.244;10.074;2023-02-22T09:36:15;100983.91;;;9.73;100.00
18504;BME280;9381;54.244;10.074;2023-02-22T09:41:19;100981.84;;;9.81;100.00
18504;BME280;9381;54.244;10.074;2023-02-22T09:46:31;100970.59;;;9.78;100.00
18504;BME280;9381;54.244;10.074;2023-02-22T09:51:41;100980.44;;;10.05;100.00
18504;BME280;9381;54.244;10.074;2023-02-22T09:56:44;100966.09;;;10.11;100.00
18504;BME280;9381;54.244;10.074;2023-02-22T10:01:47;100966.50;;;10.08;100.00
18504;BME280;9381;54.244;10.074;2023-02-22T10:07:17;100964.03;;;10.13;100.00
18504;BME280;9381;54.244;10.074;2023-02-22T10:12:27;100962.31;;;10.31;100.00
18504;BME280;9381;54.244;10.074;2023-02-22T10:17:39;100962.53;;;10.56;100.00
18504;BME280;9381;54.244;10.074;2023-02-22T10:23:15;100964.41;;;10.55;100.00
18504;BME280;9381;54.244;10.074;2023-02-22T10:28:26;100954.84;;;10.59;100.00
18504;BME280;9381;54.244;10.074;2023-02-22T10:33:35;100960.22;;;10.66;100.00
18504;BME280;9381;54.244;10.074;2023-02-22T10:38:37;100951.88;;;10.74;100.00
18504;BME280;9381;54.244;10.074;2023-02-22T10:43:42;100953.28;;;10.89;100.00
18504;BME280;9381;54.244;10.074;2023-02-22T10:48:44;100945.28;;;11.14;100.00
18504;BME280;9381;54.244;10.074;2023-02-22T10:53:56;100929.03;;;11.14;100.00
18504;BME280;9381;54.244;10.074;2023-02-22T10:59:01;100913.75;;;11.32;100.00
18504;BME280;9381;54.244;10.074;2023-02-22T11:09:17;100897.00;;;11.42;100.00
18504;BME280;9381;54.244;10.074;2023-02-22T11:14:26;100895.66;;;11.26;100.00
18504;BME280;9381;54.244;10.074;2023-02-22T11:19:29;100899.13;;;11.40;100.00
18504;BME280;9381;54.244;10.074;2023-02-22T11:24:30;100890.28;;;11.51;100.00
18504;BME280;9381;54.244;10.074;2023-02-22T11:29:33;100884.06;;;11.50;100.00
18504;BME280;9381;54.244;10.074;2023-02-22T11:34:38;100876.94;;;11.56;100.00
18504;BME280;9381;54.244;10.074;2023-02-22T11:39:38;100883.47;;;11.72;100.00
18504;BME280;9381;54.244;10.074;2023-02-22T11:44:42;100871.78;;;11.78;100.00
18504;BME280;9381;54.244;10.074;2023-02-22T11:49:44;100875.09;;;11.80;100.00
18504;BME280;9381;54.244;10.074;2023-02-22T12:00:03;100869.28;;;11.77;100.00
18504;BME280;9381;54.244;10.074;2023-02-22T12:11:01;100863.03;;;11.76;100.00
18504;BME280;9381;54.244;10.074;2023-02-22T12:16:25;100846.09;;;11.57;100.00
18504;BME280;9381;54.244;10.074;2023-02-22T12:21:30;100842.75;;;11.54;100.00
18504;BME280;9381;54.244;10.074;2023-02-22T12:26:41;100843.56;;;11.62;100.00
18504;BME280;9381;54.244;10.074;2023-02-22T12:31:51;100847.56;;;11.52;100.00
18504;BME280;9381;54.244;10.074;2023-02-22T12:37:00;100844.78;;;11.66;100.00
18504;BME280;9381;54.244;10.074;2023-02-22T12:42:11;100850.22;;;11.66;100.00
18504;BME280;9381;54.244;10.074;2023-02-22T12:47:18;100837.31;;;11.61;100.00
18504;BME280;9381;54.244;10.074;2023-02-22T12:52:41;100826.44;;;11.68;100.00
18504;BME280;9381;54.244;10.074;2023-02-22T12:58:00;100823.94;;;11.66;100.00
18504;BME280;9381;54.244;10.074;2023-02-22T13:08:36;100823.50;;;11.69;100.00
18504;BME280;9381;54.244;10.074;2023-02-22T13:13:58;100820.47;;;11.83;100.00
18504;BME280;9381;54.244;10.074;2023-02-22T13:19:42;100809.03;;;11.99;100.00
18504;BME280;9381;54.244;10.074;2023-02-22T13:29:58;100811.38;;;11.71;100.00
18504;BME280;9381;54.244;10.074;2023-02-22T13:45:35;100807.28;;;11.63;100.00
18504;BME280;9381;54.244;10.074;2023-02-22T13:50:54;100791.03;;;11.63;100.00
18504;BME280;9381;54.244;10.074;2023-02-22T13:55:59;100800.03;;;11.81;100.00
18504;BME280;9381;54.244;10.074;2023-02-22T14:00:59;100801.53;;;11.77;100.00
18504;BME280;9381;54.244;10.074;2023-02-22T14:06:02;100790.25;;;11.80;100.00
18504;BME280;9381;54.244;10.074;2023-02-22T14:11:49;100789.56;;;11.67;100.00
18504;BME280;9381;54.244;10.074;2023-02-22T14:16:28;100779.84;;;11.52;100.00
18504;BME280;9381;54.244;10.074;2023-02-22T14:21:28;100782.75;;;11.58;100.00
18504;BME280;9381;54.244;10.074;2023-02-22T14:31:32;100770.59;;;11.67;100.00
18504;BME280;9381;54.244;10.074;2023-02-22T14:36:57;100762.59;;;11.71;100.00
18504;BME280;9381;54.244;10.074;2023-02-22T14:42:11;100755.66;;;11.58;100.00
18504;BME280;9381;54.244;10.074;2023-02-22T14:47:24;100771.97;;;11.45;100.00
18504;BME280;9381;54.244;10.074;2023-02-22T14:52:29;100752.44;;;11.43;100.00
18504;BME280;9381;54.244;10.074;2023-02-22T15:03:00;100746.88;;;11.31;100.00
18504;BME280;9381;54.244;10.074;2023-02-22T15:08:05;100747.91;;;11.37;100.00
18504;BME280;9381;54.244;10.074;2023-02-22T15:13:47;100745.91;;;11.26;100.00
18504;BME280;9381;54.244;10.074;2023-02-22T15:18:40;100741.88;;;11.35;100.00
18504;BME280;9381;54.244;10.074;2023-02-22T15:23:45;100747.59;;;11.20;100.00
18504;BME280;9381;54.244;10.074;2023-02-22T15:28:53;100746.34;;;11.23;100.00
18504;BME280;9381;54.244;10.074;2023-02-22T15:33:54;100753.94;;;11.08;100.00
18504;BME280;9381;54.244;10.074;2023-02-22T15:38:55;100741.38;;;11.20;100.00
18504;BME280;9381;54.244;10.074;2023-02-22T15:44:02;100744.41;;;11.05;100.00
18504;BME280;9381;54.244;10.074;2023-02-22T15:49:23;100736.50;;;11.04;100.00
18504;BME280;9381;54.244;10.074;2023-02-22T15:54:25;100738.16;;;11.05;100.00
18504;BME280;9381;54.244;10.074;2023-02-22T15:59:25;100732.41;;;10.95;100.00
18504;BME280;9381;54.244;10.074;2023-02-22T16:04:30;100732.50;;;10.82;100.00
18504;BME280;9381;54.244;10.074;2023-02-22T16:09:30;100731.25;;;10.78;100.00
18504;BME280;9381;54.244;10.074;2023-02-22T16:19:40;100736.88;;;10.76;100.00
18504;BME280;9381;54.244;10.074;2023-02-22T16:24:43;100739.63;;;10.70;100.00
18504;BME280;9381;54.244;10.074;2023-02-22T16:29:59;100750.69;;;10.62;100.00
18504;BME280;9381;54.244;10.074;2023-02-22T16:35:00;100748.88;;;10.56;100.00
18504;BME280;9381;54.244;10.074;2023-02-22T16:40:01;100750.53;;;10.57;100.00
18504;BME280;9381;54.244;10.074;2023-02-22T16:45:01;100739.97;;;10.49;100.00
18504;BME280;9381;54.244;10.074;2023-02-22T16:50:01;100741.84;;;10.42;100.00
18504;BME280;9381;54.244;10.074;2023-02-22T16:55:01;100736.66;;;10.47;100.00
18504;BME280;9381;54.244;10.074;2023-02-22T17:00:02;100733.94;;;10.47;100.00
18504;BME280;9381;54.244;10.074;2023-02-22T17:05:12;100738.09;;;10.43;100.00
18504;BME280;9381;54.244;10.074;2023-02-22T17:10:15;100744.41;;;10.37;100.00
18504;BME280;9381;54.244;10.074;2023-02-22T17:15:20;100737.75;;;10.33;100.00
18504;BME280;9381;54.244;10.074;2023-02-22T17:20:22;100741.53;;;10.25;100.00
18504;BME280;9381;54.244;10.074;2023-02-22T17:25:35;100744.84;;;10.27;100.00
18504;BME280;9381;54.244;10.074;2023-02-22T17:30:36;100751.69;;;10.30;100.00
18504;BME280;9381;54.244;10.074;2023-02-22T17:35:37;100748.75;;;10.38;100.00
18504;BME280;9381;54.244;10.074;2023-02-22T17:40:39;100751.69;;;10.30;100.00
18504;BME280;9381;54.244;10.074;2023-02-22T17:45:40;100745.03;;;10.26;100.00
18504;BME280;9381;54.244;10.074;2023-02-22T17:50:42;100733.63;;;10.24;100.00
18504;BME280;9381;54.244;10.074;2023-02-22T17:55:43;100741.13;;;10.22;100.00
18504;BME280;9381;54.244;10.074;2023-02-22T18:00:46;100752.38;;;10.12;100.00
18504;BME280;9381;54.244;10.074;2023-02-22T18:05:49;100746.16;;;10.12;100.00
18504;BME280;9381;54.244;10.074;2023-02-22T18:10:50;100752.41;;;10.06;100.00
18504;BME280;9381;54.244;10.074;2023-02-22T18:15:56;100749.47;;;10.14;100.00
18504;BME280;9381;54.244;10.074;2023-02-22T18:20:58;100741.56;;;10.19;100.00
18504;BME280;9381;54.244;10.074;2023-02-22T18:26:00;100736.56;;;10.16;100.00
18504;BME280;9381;54.244;10.074;2023-02-22T18:31:05;100744.09;;;10.01;100.00
18504;BME280;9381;54.244;10.074;2023-02-22T18:36:06;100740.97;;;9.97;100.00
18504;BME280;9381;54.244;10.074;2023-02-22T18:41:07;100737.84;;;9.94;100.00
18504;BME280;9381;54.244;10.074;2023-02-22T18:46:17;100732.03;;;10.03;100.00
18504;BME280;9381;54.244;10.074;2023-02-22T18:51:18;100739.94;;;10.05;100.00
18504;BME280;9381;54.244;10.074;2023-02-22T18:56:18;100730.78;;;10.06;100.00
18504;BME280;9381;54.244;10.074;2023-02-22T19:01:23;100730.75;;;10.12;100.00
18504;BME280;9381;54.244;10.074;2023-02-22T19:06:23;100728.06;;;9.99;100.00
18504;BME280;9381;54.244;10.074;2023-02-22T19:11:24;100720.00;;;9.93;100.00
18504;BME280;9381;54.244;10.074;2023-02-22T19:16:25;100725.81;;;9.96;100.00
18504;BME280;9381;54.244;10.074;2023-02-22T19:21:27;100727.69;;;9.89;100.00
18504;BME280;9381;54.244;10.074;2023-02-22T19:26:28;100723.75;;;9.92;100.00
18504;BME280;9381;54.244;10.074;2023-02-22T19:31:30;100713.13;;;9.90;100.00
18504;BME280;9381;54.244;10.074;2023-02-22T19:36:32;100720.44;;;9.77;100.00
18504;BME280;9381;54.244;10.074;2023-02-22T19:41:33;100718.38;;;9.72;100.00
18504;BME280;9381;54.244;10.074;2023-02-22T19:46:34;100718.56;;;9.71;100.00
18504;BME280;9381;54.244;10.074;2023-02-22T19:51:35;100722.75;;;9.67;100.00
18504;BME280;9381;54.244;10.074;2023-02-22T19:56:37;100719.19;;;9.79;100.00
18504;BME280;9381;54.244;10.074;2023-02-22T20:01:39;100719.59;;;9.83;100.00
18504;BME280;9381;54.244;10.074;2023-02-22T20:06:41;100729.38;;;9.77;100.00
18504;BME280;9381;54.244;10.074;2023-02-22T20:11:41;100717.53;;;9.72;100.00
18504;BME280;9381;54.244;10.074;2023-02-22T20:16:42;100717.94;;;9.82;100.00
18504;BME280;9381;54.244;10.074;2023-02-22T20:21:42;100710.88;;;9.81;100.00
18504;BME280;9381;54.244;10.074;2023-02-22T20:26:43;100712.34;;;9.77;100.00
18504;BME280;9381;54.244;10.074;2023-02-22T20:31:44;100721.50;;;9.76;100.00
18504;BME280;9381;54.244;10.074;2023-02-22T20:36:48;100713.38;;;9.76;100.00
18504;BME280;9381;54.244;10.074;2023-02-22T20:41:48;100712.94;;;9.85;100.00
18504;BME280;9381;54.244;10.074;2023-02-22T20:46:49;100709.19;;;9.80;100.00
18504;BME280;9381;54.244;10.074;2023-02-22T20:51:49;100707.16;;;9.82;100.00
18504;BME280;9381;54.244;10.074;2023-02-22T20:56:50;100699.44;;;9.79;100.00
18504;BME280;9381;54.244;10.074;2023-02-22T21:01:50;100703.19;;;9.78;100.00
18504;BME280;9381;54.244;10.074;2023-02-22T21:06:52;100700.50;;;9.78;100.00
18504;BME280;9381;54.244;10.074;2023-02-22T21:11:52;100696.34;;;9.75;100.00
18504;BME280;9381;54.244;10.074;2023-02-22T21:16:53;100689.50;;;9.79;100.00
18504;BME280;9381;54.244;10.074;2023-02-22T21:21:55;100683.06;;;9.74;100.00
18504;BME280;9381;54.244;10.074;2023-02-22T21:26:56;100683.00;;;9.87;100.00
18504;BME280;9381;54.244;10.074;2023-02-22T21:31:57;100688.88;;;9.77;100.00
18504;BME280;9381;54.244;10.074;2023-02-22T21:36:59;100688.41;;;9.87;100.00
18504;BME280;9381;54.244;10.074;2023-02-22T21:41:59;100685.94;;;9.79;100.00
18504;BME280;9381;54.244;10.074;2023-02-22T21:46:59;100679.69;;;9.85;100.00
18504;BME280;9381;54.244;10.074;2023-02-22T21:52:00;100674.47;;;9.90;100.00
18504;BME280;9381;54.244;10.074;2023-02-22T21:57:00;100680.47;;;9.98;100.00
18504;BME280;9381;54.244;10.074;2023-02-22T22:02:01;100675.31;;;9.90;100.00
18504;BME280;9381;54.244;10.074;2023-02-22T22:07:01;100674.88;;;9.93;100.00
18504;BME280;9381;54.244;10.074;2023-02-22T22:12:03;100667.00;;;9.92;100.00
18504;BME280;9381;54.244;10.074;2023-02-22T22:17:05;100668.03;;;9.97;100.00
18504;BME280;9381;54.244;10.074;2023-02-22T22:22:07;100675.09;;;9.92;100.00
18504;BME280;9381;54.244;10.074;2023-02-22T22:27:08;100676.31;;;9.96;100.00
18504;BME280;9381;54.244;10.074;2023-02-22T22:32:11;100681.09;;;10.07;100.00
18504;BME280;9381;54.244;10.074;2023-02-22T22:37:11;100678.38;;;10.07;100.00
18504;BME280;9381;54.244;10.074;2023-02-22T22:42:12;100678.81;;;10.04;100.00
18504;BME280;9381;54.244;10.074;2023-02-22T22:47:12;100673.38;;;10.10;100.00
18504;BME280;9381;54.244;10.074;2023-02-22T22:52:14;100660.13;;;10.02;100.00
18504;BME280;9381;54.244;10.074;2023-02-22T22:57:15;100661.97;;;10.02;100.00
18504;BME280;9381;54.244;10.074;2023-02-22T23:02:16;100652.00;;;10.02;100.00
18504;BME280;9381;54.244;10.074;2023-02-22T23:07:19;100676.31;;;9.96;100.00
18504;BME280;9381;54.244;10.074;2023-02-22T23:12:20;100670.13;;;9.95;100.00
18504;BME280;9381;54.244;10.074;2023-02-22T23:17:30;100668.47;;;9.88;100.00
18504;BME280;9381;54.244;10.074;2023-02-22T23:22:39;100658.53;;;9.82;100.00
18504;BME280;9381;54.244;10.074;2023-02-22T23:27:46;100663.56;;;9.59;100.00
18504;BME280;9381;54.244;10.074;2023-02-22T23:32:47;100655.03;;;9.68;100.00
18504;BME280;9381;54.244;10.074;2023-02-22T23:37:51;100651.72;;;9.60;100.00
18504;BME280;9381;54.244;10.074;2023-02-22T23:42:56;100654.19;;;9.68;100.00
18504;BME280;9381;54.244;10.074;2023-02-22T23:47:57;100651.91;;;9.71;100.00
18504;BME280;9381;54.244;10.074;2023-02-22T23:53:00;100654.81;;;9.70;100.00
18504;BME280;9381;54.244;10.074;2023-02-22T23:58:02;100652.53;;;9.67;100.00
